This is the latest recevied weather packets stored in our database for station/object YO8PIC-5. If no packets are shown the sender has not sent any weather packets the latest 1 day(s).
| Time | Temp. | Humidity | Pressure | Rain* | Wind** | Luminosity | Snow |
|---|---|---|---|---|---|---|---|
| 1778097778 | 16.11° C | 47% | 1012.7 hPa | - | - | - | - |
| 1778095972 | 17.22° C | 41% | 1012.6 hPa | - | - | - | - |
| 1778092371 | 18.33° C | 38% | 1012 hPa | - | - | - | - |
| 1778089670 | 19.44° C | 35% | 1011.5 hPa | - | - | - | - |
| 1778088770 | 20° C | 34% | 1011.4 hPa | - | - | - | - |
| 1778084264 | 25° C | 26% | 1011.1 hPa | - | - | - | - |
| 1778079793 | 27.78° C | 24% | 1011.2 hPa | - | - | - | - |
| 1778076192 | 30° C | 21% | 1011.2 hPa | - | - | - | - |
| 1778075292 | 28.89° C | 23% | 1011.2 hPa | - | - | - | - |
| 1778071691 | 30° C | 21% | 1011.4 hPa | - | - | - | - |
| 1778070791 | 31.11° C | 22% | 1011.6 hPa | - | - | - | - |
| 1778067190 | 30.56° C | 19% | 1012.1 hPa | - | - | - | - |
| 1778066290 | 29.44° C | 22% | 1012.3 hPa | - | - | - | - |
| 1778062689 | 29.44° C | 26% | 1012.6 hPa | - | - | - | - |
| 1778061789 | 28.89° C | 24% | 1012.7 hPa | - | - | - | - |
| 1778059088 | 28.33° C | 25% | 1012.9 hPa | - | - | - | - |
| 1778058188 | 27.78° C | 26% | 1013 hPa | - | - | - | - |
| 1778057287 | 26.67° C | 27% | 1013 hPa | - | - | - | - |
| 1778053681 | 23.89° C | 30% | 1013.1 hPa | - | - | - | - |
| 1778052781 | 23.33° C | 32% | 1013.2 hPa | - | - | - | - |
| 1778051881 | 22.78° C | 35% | 1013.2 hPa | - | - | - | - |
| 1778050981 | 21.11° C | 35% | 1013.2 hPa | - | - | - | - |
| 1778049180 | 18.89° C | 39% | 1013.3 hPa | - | - | - | - |
| 1778048280 | 17.22° C | 40% | 1013.3 hPa | - | - | - | - |
| 1778047380 | 16.67° C | 43% | 1013.3 hPa | - | - | - | - |
* Rain since midnight (hover to see other rain measurements)
** Current wind speed in m/s (hover to see current wind gust speed)